sensor_id;sensor_type;location;lat;lon;timestamp;temperature;humidity
80964;DHT22;70425;59.322;13.486;2023-08-07T00:07:11;13.70;99.90
80964;DHT22;70425;59.322;13.486;2023-08-07T00:10:00;13.70;99.90
80964;DHT22;70425;59.322;13.486;2023-08-07T00:12:50;13.70;99.90
80964;DHT22;70425;59.322;13.486;2023-08-07T00:15:40;13.80;99.90
80964;DHT22;70425;59.322;13.486;2023-08-07T00:18:30;13.80;99.90
80964;DHT22;70425;59.322;13.486;2023-08-07T00:21:19;13.80;99.90
80964;DHT22;70425;59.322;13.486;2023-08-07T00:24:08;13.70;99.90
80964;DHT22;70425;59.322;13.486;2023-08-07T00:26:59;13.70;99.90
80964;DHT22;70425;59.322;13.486;2023-08-07T00:29:49;13.70;99.90
80964;DHT22;70425;59.322;13.486;2023-08-07T00:32:38;13.70;99.90
80964;DHT22;70425;59.322;13.486;2023-08-07T00:35:31;13.80;99.90
80964;DHT22;70425;59.322;13.486;2023-08-07T00:38:20;13.80;99.90
80964;DHT22;70425;59.322;13.486;2023-08-07T01:25:14;14.20;99.90
80964;DHT22;70425;59.322;13.486;2023-08-07T01:44:48;14.70;99.90
80964;DHT22;70425;59.322;13.486;2023-08-07T01:47:38;14.70;99.90
80964;DHT22;70425;59.322;13.486;2023-08-07T01:50:28;14.70;99.90
80964;DHT22;70425;59.322;13.486;2023-08-07T01:56:08;14.80;99.90
80964;DHT22;70425;59.322;13.486;2023-08-07T01:59:06;14.80;99.90
80964;DHT22;70425;59.322;13.486;2023-08-07T02:02:01;14.80;99.90
80964;DHT22;70425;59.322;13.486;2023-08-07T02:07:48;14.80;99.90
80964;DHT22;70425;59.322;13.486;2023-08-07T02:10:42;14.80;99.90
80964;DHT22;70425;59.322;13.486;2023-08-07T02:13:33;14.80;99.90
80964;DHT22;70425;59.322;13.486;2023-08-07T02:16:26;14.80;99.90
80964;DHT22;70425;59.322;13.486;2023-08-07T02:19:18;14.90;99.90
80964;DHT22;70425;59.322;13.486;2023-08-07T02:39:39;14.80;99.90
80964;DHT22;70425;59.322;13.486;2023-08-07T02:42:28;14.90;99.90
80964;DHT22;70425;59.322;13.486;2023-08-07T02:45:34;15.00;99.90
80964;DHT22;70425;59.322;13.486;2023-08-07T02:48:35;15.00;99.90
80964;DHT22;70425;59.322;13.486;2023-08-07T02:51:35;15.00;99.90
80964;DHT22;70425;59.322;13.486;2023-08-07T02:54:33;15.00;99.90
80964;DHT22;70425;59.322;13.486;2023-08-07T02:57:25;15.00;99.90
80964;DHT22;70425;59.322;13.486;2023-08-07T03:31:45;15.60;99.90
80964;DHT22;70425;59.322;13.486;2023-08-07T03:34:34;15.60;99.90
80964;DHT22;70425;59.322;13.486;2023-08-07T03:37:24;15.60;99.90
80964;DHT22;70425;59.322;13.486;2023-08-07T03:40:13;15.70;99.90
80964;DHT22;70425;59.322;13.486;2023-08-07T03:43:02;15.70;99.90
80964;DHT22;70425;59.322;13.486;2023-08-07T03:45:56;15.70;99.90
80964;DHT22;70425;59.322;13.486;2023-08-07T03:48:45;15.80;99.90
80964;DHT22;70425;59.322;13.486;2023-08-07T03:51:34;15.80;99.90
80964;DHT22;70425;59.322;13.486;2023-08-07T03:54:24;15.80;99.90
80964;DHT22;70425;59.322;13.486;2023-08-07T03:57:13;15.90;99.90
80964;DHT22;70425;59.322;13.486;2023-08-07T04:25:04;15.90;99.90
80964;DHT22;70425;59.322;13.486;2023-08-07T04:30:59;16.10;99.90
80964;DHT22;70425;59.322;13.486;2023-08-07T04:33:48;16.10;99.90
80964;DHT22;70425;59.322;13.486;2023-08-07T04:36:37;16.20;99.90
80964;DHT22;70425;59.322;13.486;2023-08-07T04:39:27;16.20;99.90
80964;DHT22;70425;59.322;13.486;2023-08-07T04:42:22;16.30;99.90
80964;DHT22;70425;59.322;13.486;2023-08-07T04:48:30;16.30;99.90
80964;DHT22;70425;59.322;13.486;2023-08-07T04:54:36;16.40;99.90
80964;DHT22;70425;59.322;13.486;2023-08-07T04:57:51;16.50;99.90
80964;DHT22;70425;59.322;13.486;2023-08-07T05:00:46;16.50;99.90
80964;DHT22;70425;59.322;13.486;2023-08-07T05:03:52;16.50;99.90
80964;DHT22;70425;59.322;13.486;2023-08-07T05:06:53;16.60;99.90
80964;DHT22;70425;59.322;13.486;2023-08-07T05:09:48;16.60;99.90
80964;DHT22;70425;59.322;13.486;2023-08-07T05:12:39;16.70;99.90
80964;DHT22;70425;59.322;13.486;2023-08-07T05:15:35;16.70;99.90
80964;DHT22;70425;59.322;13.486;2023-08-07T05:18:52;16.70;99.90
80964;DHT22;70425;59.322;13.486;2023-08-07T05:21:46;16.80;99.90
80964;DHT22;70425;59.322;13.486;2023-08-07T05:24:38;16.80;99.90
80964;DHT22;70425;59.322;13.486;2023-08-07T05:27:28;16.80;99.90
80964;DHT22;70425;59.322;13.486;2023-08-07T05:30:20;16.90;99.90
80964;DHT22;70425;59.322;13.486;2023-08-07T05:33:13;16.90;99.90
80964;DHT22;70425;59.322;13.486;2023-08-07T05:36:03;16.90;99.90
80964;DHT22;70425;59.322;13.486;2023-08-07T05:52:40;17.00;99.90
80964;DHT22;70425;59.322;13.486;2023-08-07T05:55:39;17.10;99.90
80964;DHT22;70425;59.322;13.486;2023-08-07T06:01:51;17.20;99.90
80964;DHT22;70425;59.322;13.486;2023-08-07T06:04:44;17.20;99.90
80964;DHT22;70425;59.322;13.486;2023-08-07T06:07:39;17.20;99.90
80964;DHT22;70425;59.322;13.486;2023-08-07T06:10:29;17.20;99.90
80964;DHT22;70425;59.322;13.486;2023-08-07T06:16:27;17.20;99.90
80964;DHT22;70425;59.322;13.486;2023-08-07T06:32:45;17.20;99.90
80964;DHT22;70425;59.322;13.486;2023-08-07T06:38:19;17.40;99.90
80964;DHT22;70425;59.322;13.486;2023-08-07T06:41:07;17.40;99.90
80964;DHT22;70425;59.322;13.486;2023-08-07T06:43:58;17.50;99.90
80964;DHT22;70425;59.322;13.486;2023-08-07T06:46:46;17.50;99.90
80964;DHT22;70425;59.322;13.486;2023-08-07T06:49:36;17.50;99.90
80964;DHT22;70425;59.322;13.486;2023-08-07T06:52:25;17.50;99.90
80964;DHT22;70425;59.322;13.486;2023-08-07T06:55:14;17.50;99.90
80964;DHT22;70425;59.322;13.486;2023-08-07T06:58:04;17.60;99.90
80964;DHT22;70425;59.322;13.486;2023-08-07T07:00:54;17.60;99.90
80964;DHT22;70425;59.322;13.486;2023-08-07T07:03:44;17.60;99.90
80964;DHT22;70425;59.322;13.486;2023-08-07T07:06:34;17.60;99.90
80964;DHT22;70425;59.322;13.486;2023-08-07T07:12:44;17.80;99.90
80964;DHT22;70425;59.322;13.486;2023-08-07T07:15:43;17.80;99.90
80964;DHT22;70425;59.322;13.486;2023-08-07T07:18:32;17.80;99.90
80964;DHT22;70425;59.322;13.486;2023-08-07T07:21:21;17.90;99.90
80964;DHT22;70425;59.322;13.486;2023-08-07T07:24:33;17.90;99.90
80964;DHT22;70425;59.322;13.486;2023-08-07T07:30:19;18.00;99.90
80964;DHT22;70425;59.322;13.486;2023-08-07T07:33:33;18.00;99.90
80964;DHT22;70425;59.322;13.486;2023-08-07T07:36:31;18.10;99.90
80964;DHT22;70425;59.322;13.486;2023-08-07T07:39:46;18.10;99.90
80964;DHT22;70425;59.322;13.486;2023-08-07T07:43:29;18.20;99.90
80964;DHT22;70425;59.322;13.486;2023-08-07T07:46:33;18.30;99.90
80964;DHT22;70425;59.322;13.486;2023-08-07T07:49:44;18.30;99.90
80964;DHT22;70425;59.322;13.486;2023-08-07T07:52:51;18.40;99.90
80964;DHT22;70425;59.322;13.486;2023-08-07T07:55:49;18.40;99.90
80964;DHT22;70425;59.322;13.486;2023-08-07T07:58:51;18.50;99.90
80964;DHT22;70425;59.322;13.486;2023-08-07T08:01:45;18.50;99.90
80964;DHT22;70425;59.322;13.486;2023-08-07T08:04:36;18.50;99.90
80964;DHT22;70425;59.322;13.486;2023-08-07T08:07:29;18.60;99.90
80964;DHT22;70425;59.322;13.486;2023-08-07T08:10:21;18.60;99.90
80964;DHT22;70425;59.322;13.486;2023-08-07T08:38:11;18.70;99.90
80964;DHT22;70425;59.322;13.486;2023-08-07T08:43:52;19.20;99.90
80964;DHT22;70425;59.322;13.486;2023-08-07T08:46:45;19.20;99.90
80964;DHT22;70425;59.322;13.486;2023-08-07T08:49:49;19.20;99.90
80964;DHT22;70425;59.322;13.486;2023-08-07T08:52:48;19.20;99.90
80964;DHT22;70425;59.322;13.486;2023-08-07T08:55:39;19.30;99.90
80964;DHT22;70425;59.322;13.486;2023-08-07T08:58:32;19.30;99.90
80964;DHT22;70425;59.322;13.486;2023-08-07T09:01:42;19.30;99.90
80964;DHT22;70425;59.322;13.486;2023-08-07T09:04:34;19.40;99.90
80964;DHT22;70425;59.322;13.486;2023-08-07T09:10:37;19.50;99.90
80964;DHT22;70425;59.322;13.486;2023-08-07T09:29:51;19.80;99.90
80964;DHT22;70425;59.322;13.486;2023-08-07T09:32:43;19.90;99.90
80964;DHT22;70425;59.322;13.486;2023-08-07T09:35:34;19.80;99.90
80964;DHT22;70425;59.322;13.486;2023-08-07T09:38:30;19.90;99.90
80964;DHT22;70425;59.322;13.486;2023-08-07T09:41:26;19.90;99.90
80964;DHT22;70425;59.322;13.486;2023-08-07T09:44:19;19.90;99.90
80964;DHT22;70425;59.322;13.486;2023-08-07T10:03:40;20.30;99.90
80964;DHT22;70425;59.322;13.486;2023-08-07T10:06:31;20.30;99.90
80964;DHT22;70425;59.322;13.486;2023-08-07T10:09:32;20.30;99.90
80964;DHT22;70425;59.322;13.486;2023-08-07T10:16:13;20.40;99.90
80964;DHT22;70425;59.322;13.486;2023-08-07T10:19:02;20.40;99.90
80964;DHT22;70425;59.322;13.486;2023-08-07T10:21:52;20.50;99.90
80964;DHT22;70425;59.322;13.486;2023-08-07T10:24:43;20.50;99.90
80964;DHT22;70425;59.322;13.486;2023-08-07T10:27:38;20.60;99.90
80964;DHT22;70425;59.322;13.486;2023-08-07T10:33:42;20.80;99.90
80964;DHT22;70425;59.322;13.486;2023-08-07T10:39:29;20.90;99.90
80964;DHT22;70425;59.322;13.486;2023-08-07T10:45:04;20.80;99.90
80964;DHT22;70425;59.322;13.486;2023-08-07T10:54:05;21.10;99.90
80964;DHT22;70425;59.322;13.486;2023-08-07T10:56:55;21.30;99.90
80964;DHT22;70425;59.322;13.486;2023-08-07T11:00:01;21.30;99.90
80964;DHT22;70425;59.322;13.486;2023-08-07T11:02:49;21.30;99.90
80964;DHT22;70425;59.322;13.486;2023-08-07T11:05:40;21.40;99.90
80964;DHT22;70425;59.322;13.486;2023-08-07T11:22:28;21.40;99.90
80964;DHT22;70425;59.322;13.486;2023-08-07T11:28:00;21.40;99.90
80964;DHT22;70425;59.322;13.486;2023-08-07T11:33:31;21.40;99.90
80964;DHT22;70425;59.322;13.486;2023-08-07T11:39:43;21.60;99.90
80964;DHT22;70425;59.322;13.486;2023-08-07T11:42:33;21.60;99.90
80964;DHT22;70425;59.322;13.486;2023-08-07T12:01:25;21.70;99.90
80964;DHT22;70425;59.322;13.486;2023-08-07T12:04:19;21.80;99.90
80964;DHT22;70425;59.322;13.486;2023-08-07T12:07:10;22.00;99.90
80964;DHT22;70425;59.322;13.486;2023-08-07T12:10:19;22.10;99.90
80964;DHT22;70425;59.322;13.486;2023-08-07T12:16:04;21.90;99.90
80964;DHT22;70425;59.322;13.486;2023-08-07T12:18:53;22.00;99.90
80964;DHT22;70425;59.322;13.486;2023-08-07T12:24:29;22.10;99.90
80964;DHT22;70425;59.322;13.486;2023-08-07T12:30:03;22.30;99.90
80964;DHT22;70425;59.322;13.486;2023-08-07T12:32:55;22.50;99.90
80964;DHT22;70425;59.322;13.486;2023-08-07T12:35:44;22.60;99.90
80964;DHT22;70425;59.322;13.486;2023-08-07T12:38:34;23.10;99.90
80964;DHT22;70425;59.322;13.486;2023-08-07T12:41:24;23.60;99.90
80964;DHT22;70425;59.322;13.486;2023-08-07T12:44:12;23.60;99.90
80964;DHT22;70425;59.322;13.486;2023-08-07T12:47:01;23.60;99.90
80964;DHT22;70425;59.322;13.486;2023-08-07T12:49:50;23.60;99.90
80964;DHT22;70425;59.322;13.486;2023-08-07T12:52:38;23.50;99.90
80964;DHT22;70425;59.322;13.486;2023-08-07T12:55:28;23.90;99.90
80964;DHT22;70425;59.322;13.486;2023-08-07T12:58:20;23.80;99.90
80964;DHT22;70425;59.322;13.486;2023-08-07T13:03:58;24.10;99.90
80964;DHT22;70425;59.322;13.486;2023-08-07T13:06:51;24.00;99.90
80964;DHT22;70425;59.322;13.486;2023-08-07T13:12:37;23.50;99.90
80964;DHT22;70425;59.322;13.486;2023-08-07T13:15:26;23.50;99.90
80964;DHT22;70425;59.322;13.486;2023-08-07T13:18:17;23.70;99.90
80964;DHT22;70425;59.322;13.486;2023-08-07T13:21:05;24.00;99.90
80964;DHT22;70425;59.322;13.486;2023-08-07T13:23:54;23.90;99.90
80964;DHT22;70425;59.322;13.486;2023-08-07T13:26:45;23.50;99.90
80964;DHT22;70425;59.322;13.486;2023-08-07T13:29:33;23.40;99.90
80964;DHT22;70425;59.322;13.486;2023-08-07T13:32:23;23.40;99.90
80964;DHT22;70425;59.322;13.486;2023-08-07T13:35:13;23.40;99.90
80964;DHT22;70425;59.322;13.486;2023-08-07T13:38:02;23.50;99.90
80964;DHT22;70425;59.322;13.486;2023-08-07T13:40:58;23.40;99.90
80964;DHT22;70425;59.322;13.486;2023-08-07T13:46:28;23.30;99.90
80964;DHT22;70425;59.322;13.486;2023-08-07T13:49:17;23.40;99.90
80964;DHT22;70425;59.322;13.486;2023-08-07T13:55:01;24.10;99.90
80964;DHT22;70425;59.322;13.486;2023-08-07T14:00:34;23.80;99.90
80964;DHT22;70425;59.322;13.486;2023-08-07T14:03:23;23.50;99.90
80964;DHT22;70425;59.322;13.486;2023-08-07T14:06:13;23.40;99.90
80964;DHT22;70425;59.322;13.486;2023-08-07T14:09:02;23.70;99.90
80964;DHT22;70425;59.322;13.486;2023-08-07T14:11:51;24.10;99.90
80964;DHT22;70425;59.322;13.486;2023-08-07T14:14:42;24.30;99.90
80964;DHT22;70425;59.322;13.486;2023-08-07T14:17:30;24.40;99.90
80964;DHT22;70425;59.322;13.486;2023-08-07T14:20:20;24.30;99.90
80964;DHT22;70425;59.322;13.486;2023-08-07T14:23:10;24.10;99.90
80964;DHT22;70425;59.322;13.486;2023-08-07T14:25:59;23.80;99.90
80964;DHT22;70425;59.322;13.486;2023-08-07T14:28:52;23.60;99.90
80964;DHT22;70425;59.322;13.486;2023-08-07T14:31:42;23.40;99.90
80964;DHT22;70425;59.322;13.486;2023-08-07T14:34:34;23.40;99.90
80964;DHT22;70425;59.322;13.486;2023-08-07T14:40:12;23.60;99.90
80964;DHT22;70425;59.322;13.486;2023-08-07T14:45:44;23.70;99.90
80964;DHT22;70425;59.322;13.486;2023-08-07T14:48:34;23.60;99.90
80964;DHT22;70425;59.322;13.486;2023-08-07T14:51:23;23.50;99.90
80964;DHT22;70425;59.322;13.486;2023-08-07T14:54:23;23.60;99.90
80964;DHT22;70425;59.322;13.486;2023-08-07T14:57:13;23.50;99.90
80964;DHT22;70425;59.322;13.486;2023-08-07T15:00:02;23.30;99.90
80964;DHT22;70425;59.322;13.486;2023-08-07T15:02:53;23.20;99.90
80964;DHT22;70425;59.322;13.486;2023-08-07T15:05:45;23.20;99.90
80964;DHT22;70425;59.322;13.486;2023-08-07T15:08:37;23.20;99.90
80964;DHT22;70425;59.322;13.486;2023-08-07T15:11:25;23.30;99.90
80964;DHT22;70425;59.322;13.486;2023-08-07T15:44:08;22.90;99.90
80964;DHT22;70425;59.322;13.486;2023-08-07T15:49:53;22.60;99.90
80964;DHT22;70425;59.322;13.486;2023-08-07T15:52:44;22.50;99.90
80964;DHT22;70425;59.322;13.486;2023-08-07T15:55:33;22.40;99.90
80964;DHT22;70425;59.322;13.486;2023-08-07T15:58:42;22.40;99.90
80964;DHT22;70425;59.322;13.486;2023-08-07T16:01:31;22.40;99.90
80964;DHT22;70425;59.322;13.486;2023-08-07T16:07:17;22.40;99.90
80964;DHT22;70425;59.322;13.486;2023-08-07T16:13:07;22.20;99.90
80964;DHT22;70425;59.322;13.486;2023-08-07T16:15:57;22.00;99.90
80964;DHT22;70425;59.322;13.486;2023-08-07T16:18:46;21.90;99.90
80964;DHT22;70425;59.322;13.486;2023-08-07T16:21:38;21.80;99.90
80964;DHT22;70425;59.322;13.486;2023-08-07T16:24:27;21.70;99.90
80964;DHT22;70425;59.322;13.486;2023-08-07T16:27:17;21.60;99.90
80964;DHT22;70425;59.322;13.486;2023-08-07T16:30:14;21.50;99.90
80964;DHT22;70425;59.322;13.486;2023-08-07T16:33:06;21.50;99.90
80964;DHT22;70425;59.322;13.486;2023-08-07T16:35:55;21.40;99.90
80964;DHT22;70425;59.322;13.486;2023-08-07T16:38:44;21.30;99.90
80964;DHT22;70425;59.322;13.486;2023-08-07T16:41:36;21.20;99.90
80964;DHT22;70425;59.322;13.486;2023-08-07T16:44:27;21.20;99.90
80964;DHT22;70425;59.322;13.486;2023-08-07T16:47:20;21.20;99.90
80964;DHT22;70425;59.322;13.486;2023-08-07T16:50:12;21.20;99.90
80964;DHT22;70425;59.322;13.486;2023-08-07T16:53:03;21.20;99.90
80964;DHT22;70425;59.322;13.486;2023-08-07T16:55:53;21.10;99.90
80964;DHT22;70425;59.322;13.486;2023-08-07T16:58:47;21.10;99.90
80964;DHT22;70425;59.322;13.486;2023-08-07T17:04:22;21.00;99.90
80964;DHT22;70425;59.322;13.486;2023-08-07T17:07:13;21.00;99.90
80964;DHT22;70425;59.322;13.486;2023-08-07T17:10:04;21.00;99.90
80964;DHT22;70425;59.322;13.486;2023-08-07T17:12:55;20.90;99.90
80964;DHT22;70425;59.322;13.486;2023-08-07T17:15:44;20.80;99.90
80964;DHT22;70425;59.322;13.486;2023-08-07T17:18:33;20.80;99.90
80964;DHT22;70425;59.322;13.486;2023-08-07T17:21:22;20.70;99.90
80964;DHT22;70425;59.322;13.486;2023-08-07T17:24:11;20.80;99.90
80964;DHT22;70425;59.322;13.486;2023-08-07T17:27:00;20.80;99.90
80964;DHT22;70425;59.322;13.486;2023-08-07T17:29:51;20.70;99.90
80964;DHT22;70425;59.322;13.486;2023-08-07T17:32:42;20.60;99.90
80964;DHT22;70425;59.322;13.486;2023-08-07T17:38:34;20.70;99.90
80964;DHT22;70425;59.322;13.486;2023-08-07T17:41:24;20.60;99.90
80964;DHT22;70425;59.322;13.486;2023-08-07T17:44:14;20.60;99.90
80964;DHT22;70425;59.322;13.486;2023-08-07T18:00:34;20.60;99.90
80964;DHT22;70425;59.322;13.486;2023-08-07T18:06:17;20.40;99.90
80964;DHT22;70425;59.322;13.486;2023-08-07T18:09:07;20.30;99.90
80964;DHT22;70425;59.322;13.486;2023-08-07T18:12:03;20.20;99.90
80964;DHT22;70425;59.322;13.486;2023-08-07T18:15:21;20.20;99.90
80964;DHT22;70425;59.322;13.486;2023-08-07T18:21:56;19.90;99.90
80964;DHT22;70425;59.322;13.486;2023-08-07T18:24:50;19.80;99.90
80964;DHT22;70425;59.322;13.486;2023-08-07T18:27:43;19.80;99.90
80964;DHT22;70425;59.322;13.486;2023-08-07T18:30:34;19.70;99.90
80964;DHT22;70425;59.322;13.486;2023-08-07T18:33:26;19.60;99.90
80964;DHT22;70425;59.322;13.486;2023-08-07T18:36:23;19.60;99.90
80964;DHT22;70425;59.322;13.486;2023-08-07T18:39:15;19.60;99.90
80964;DHT22;70425;59.322;13.486;2023-08-07T18:42:06;19.60;99.90
80964;DHT22;70425;59.322;13.486;2023-08-07T18:45:00;19.60;99.90
80964;DHT22;70425;59.322;13.486;2023-08-07T18:47:53;19.60;99.90
80964;DHT22;70425;59.322;13.486;2023-08-07T18:50:47;19.60;99.90
80964;DHT22;70425;59.322;13.486;2023-08-07T18:53:36;19.60;99.90
80964;DHT22;70425;59.322;13.486;2023-08-07T18:56:27;19.50;99.90
80964;DHT22;70425;59.322;13.486;2023-08-07T18:59:19;19.40;99.90
80964;DHT22;70425;59.322;13.486;2023-08-07T19:05:51;19.40;99.90
80964;DHT22;70425;59.322;13.486;2023-08-07T19:11:58;19.40;99.90
80964;DHT22;70425;59.322;13.486;2023-08-07T19:14:50;19.40;99.90
80964;DHT22;70425;59.322;13.486;2023-08-07T19:17:39;19.30;99.90
80964;DHT22;70425;59.322;13.486;2023-08-07T19:23:29;19.20;99.90
80964;DHT22;70425;59.322;13.486;2023-08-07T19:26:23;19.20;99.90
80964;DHT22;70425;59.322;13.486;2023-08-07T19:32:10;19.00;99.90
80964;DHT22;70425;59.322;13.486;2023-08-07T19:48:28;18.90;99.90
80964;DHT22;70425;59.322;13.486;2023-08-07T19:54:14;18.50;99.90
80964;DHT22;70425;59.322;13.486;2023-08-07T19:57:06;18.50;99.90
80964;DHT22;70425;59.322;13.486;2023-08-07T19:59:56;18.40;99.90
80964;DHT22;70425;59.322;13.486;2023-08-07T20:02:45;18.40;99.90
80964;DHT22;70425;59.322;13.486;2023-08-07T20:05:34;18.40;99.90
80964;DHT22;70425;59.322;13.486;2023-08-07T20:08:23;18.30;99.90
80964;DHT22;70425;59.322;13.486;2023-08-07T20:14:01;18.30;99.90
80964;DHT22;70425;59.322;13.486;2023-08-07T20:19:38;18.30;99.90
80964;DHT22;70425;59.322;13.486;2023-08-07T20:22:32;18.30;99.90
80964;DHT22;70425;59.322;13.486;2023-08-07T20:25:23;18.20;99.90
80964;DHT22;70425;59.322;13.486;2023-08-07T20:28:13;18.20;99.90
80964;DHT22;70425;59.322;13.486;2023-08-07T20:31:02;18.20;99.90
80964;DHT22;70425;59.322;13.486;2023-08-07T20:33:51;18.20;99.90
80964;DHT22;70425;59.322;13.486;2023-08-07T20:36:45;18.20;99.90
80964;DHT22;70425;59.322;13.486;2023-08-07T20:39:34;18.20;99.90
80964;DHT22;70425;59.322;13.486;2023-08-07T20:42:25;18.10;99.90
80964;DHT22;70425;59.322;13.486;2023-08-07T20:45:17;18.10;99.90
80964;DHT22;70425;59.322;13.486;2023-08-07T20:48:07;18.10;99.90
80964;DHT22;70425;59.322;13.486;2023-08-07T20:51:00;18.10;99.90
80964;DHT22;70425;59.322;13.486;2023-08-07T20:53:49;18.00;99.90
80964;DHT22;70425;59.322;13.486;2023-08-07T20:56:39;18.00;99.90
80964;DHT22;70425;59.322;13.486;2023-08-07T20:59:28;18.00;99.90
80964;DHT22;70425;59.322;13.486;2023-08-07T21:05:02;18.00;99.90
80964;DHT22;70425;59.322;13.486;2023-08-07T21:07:52;18.00;99.90
80964;DHT22;70425;59.322;13.486;2023-08-07T21:10:41;18.00;99.90
80964;DHT22;70425;59.322;13.486;2023-08-07T21:16:09;18.00;99.90
80964;DHT22;70425;59.322;13.486;2023-08-07T21:18:58;17.90;99.90
80964;DHT22;70425;59.322;13.486;2023-08-07T21:21:49;17.80;99.90
80964;DHT22;70425;59.322;13.486;2023-08-07T21:24:43;17.90;99.90
80964;DHT22;70425;59.322;13.486;2023-08-07T21:27:32;17.90;99.90
80964;DHT22;70425;59.322;13.486;2023-08-07T21:30:22;17.80;99.90
80964;DHT22;70425;59.322;13.486;2023-08-07T21:33:12;17.70;99.90
80964;DHT22;70425;59.322;13.486;2023-08-07T21:36:03;17.70;99.90
80964;DHT22;70425;59.322;13.486;2023-08-07T21:41:49;17.60;99.90
80964;DHT22;70425;59.322;13.486;2023-08-07T21:47:24;17.50;99.90
80964;DHT22;70425;59.322;13.486;2023-08-07T22:03:44;17.60;99.90
80964;DHT22;70425;59.322;13.486;2023-08-07T22:09:26;17.30;99.90
80964;DHT22;70425;59.322;13.486;2023-08-07T22:12:15;17.30;99.90
80964;DHT22;70425;59.322;13.486;2023-08-07T22:15:14;17.40;99.90
80964;DHT22;70425;59.322;13.486;2023-08-07T22:21:04;17.30;99.90
80964;DHT22;70425;59.322;13.486;2023-08-07T22:23:54;17.30;99.90
80964;DHT22;70425;59.322;13.486;2023-08-07T22:26:43;17.20;99.90
80964;DHT22;70425;59.322;13.486;2023-08-07T22:29:32;17.20;99.90
80964;DHT22;70425;59.322;13.486;2023-08-07T22:58:40;17.00;99.90
80964;DHT22;70425;59.322;13.486;2023-08-07T23:04:25;16.90;99.90
80964;DHT22;70425;59.322;13.486;2023-08-07T23:07:14;16.80;99.90
80964;DHT22;70425;59.322;13.486;2023-08-07T23:10:04;16.90;99.90
80964;DHT22;70425;59.322;13.486;2023-08-07T23:12:53;16.90;99.90
80964;DHT22;70425;59.322;13.486;2023-08-07T23:15:44;16.90;99.90
80964;DHT22;70425;59.322;13.486;2023-08-07T23:18:34;16.80;99.90
80964;DHT22;70425;59.322;13.486;2023-08-07T23:21:23;16.80;99.90
80964;DHT22;70425;59.322;13.486;2023-08-07T23:24:12;16.80;99.90
80964;DHT22;70425;59.322;13.486;2023-08-07T23:30:18;16.80;99.90
80964;DHT22;70425;59.322;13.486;2023-08-07T23:33:08;16.80;99.90
80964;DHT22;70425;59.322;13.486;2023-08-07T23:35:57;16.80;99.90
80964;DHT22;70425;59.322;13.486;2023-08-07T23:55:12;16.70;99.90
